createdAt,value
2022-12-09T00:03:24.778Z,3.6
2022-12-09T00:09:08.090Z,3.5
2022-12-09T00:14:15.234Z,3.4
2022-12-09T00:19:24.207Z,3.4
2022-12-09T00:25:03.169Z,3.5
2022-12-09T00:30:27.612Z,3.5
2022-12-09T00:36:08.727Z,3.5
2022-12-09T00:41:49.242Z,3.5
2022-12-09T00:47:29.694Z,3.6
2022-12-09T00:52:53.980Z,3.6
2022-12-09T00:58:34.926Z,3.6
2022-12-09T01:04:16.692Z,3.5
2022-12-09T01:09:57.265Z,3.4
2022-12-09T01:15:21.148Z,3.4
2022-12-09T01:20:46.619Z,3.3
2022-12-09T01:26:26.664Z,3.3
2022-12-09T01:31:52.314Z,3.2
2022-12-09T01:37:16.311Z,3.1
2022-12-09T01:42:26.269Z,3
2022-12-09T01:48:07.243Z,2.9
2022-12-09T01:53:46.570Z,2.9
2022-12-09T01:59:27.268Z,2.8
2022-12-09T02:05:10.533Z,2.8
2022-12-09T02:10:51.559Z,2.8
2022-12-09T02:16:32.542Z,2.8
2022-12-09T02:22:14.338Z,2.8
2022-12-09T02:27:38.865Z,2.8
2022-12-09T02:33:21.243Z,2.8
2022-12-09T02:39:01.769Z,2.8
2022-12-09T02:44:45.718Z,2.8
2022-12-09T02:50:29.086Z,2.8
2022-12-09T02:55:53.982Z,2.8
2022-12-09T03:01:20.651Z,2.8
2022-12-09T03:06:47.183Z,2.8
2022-12-09T03:12:28.177Z,2.8
2022-12-09T03:18:09.597Z,2.8
2022-12-09T03:23:50.559Z,2.8
2022-12-09T03:29:16.676Z,2.8
2022-12-09T03:34:43.721Z,2.8
2022-12-09T03:40:31.784Z,2.8
2022-12-09T03:45:56.503Z,2.9
2022-12-09T03:51:06.858Z,2.9
2022-12-09T03:56:48.213Z,2.9
2022-12-09T04:02:14.606Z,2.8
2022-12-09T04:07:40.240Z,2.8
2022-12-09T04:13:23.266Z,2.8
2022-12-09T04:19:09.028Z,2.8
2022-12-09T04:24:55.434Z,2.8
2022-12-09T04:30:35.325Z,2.8
2022-12-09T04:36:18.083Z,2.8
2022-12-09T04:41:32.913Z,2.8
2022-12-09T04:46:59.274Z,2.8
2022-12-09T04:52:33.793Z,2.7
2022-12-09T04:58:13.710Z,2.8
2022-12-09T05:03:58.544Z,2.8
2022-12-09T05:09:46.513Z,2.8
2022-12-09T05:15:12.663Z,2.9
2022-12-09T05:20:26.447Z,2.8
2022-12-09T05:25:56.613Z,2.8
2022-12-09T05:31:27.002Z,2.8
2022-12-09T05:37:22.272Z,2.8
2022-12-09T05:43:13.877Z,2.8
2022-12-09T05:48:59.464Z,2.8
2022-12-09T05:54:43.785Z,2.9
2022-12-09T06:00:17.737Z,2.9
2022-12-09T06:05:30.069Z,2.9
2022-12-09T06:11:22.125Z,3.1
2022-12-09T06:17:08.927Z,3.1
2022-12-09T06:22:52.439Z,3.2
2022-12-09T06:28:43.429Z,3.3
2022-12-09T06:34:58.160Z,3.4
2022-12-09T06:40:40.775Z,3.5
2022-12-09T06:46:11.123Z,3.6
2022-12-09T06:51:55.765Z,3.7
2022-12-09T06:57:41.891Z,3.9
2022-12-09T07:03:12.805Z,4.1
2022-12-09T07:09:00.894Z,4.4
2022-12-09T07:14:45.765Z,4.8
2022-12-09T07:20:39.677Z,5.1
2022-12-09T07:26:24.233Z,5.6
2022-12-09T07:32:14.254Z,6
2022-12-09T07:38:06.839Z,6.5
2022-12-09T07:43:55.862Z,6.9
2022-12-09T07:49:26.573Z,7.3
2022-12-09T07:55:16.034Z,7.8
2022-12-09T08:00:59.099Z,8.2
2022-12-09T08:06:46.300Z,8.7
2022-12-09T08:12:40.714Z,9.2
2022-12-09T08:18:33.334Z,9.7
2022-12-09T08:24:19.692Z,10.3
2022-12-09T08:30:05.648Z,11
2022-12-09T08:35:55.899Z,12
2022-12-09T08:41:40.193Z,13.3
2022-12-09T08:47:25.328Z,14.3
2022-12-09T08:53:15.332Z,15.3
2022-12-09T08:58:58.086Z,16.3
2022-12-09T09:04:44.417Z,20.1
2022-12-09T09:10:34.203Z,24.6
2022-12-09T09:16:25.577Z,28.7
2022-12-09T09:22:15.093Z,31.3
2022-12-09T09:27:59.168Z,33.4
2022-12-09T09:33:46.066Z,36.9
2022-12-09T09:39:38.688Z,42.7
2022-12-09T09:45:23.383Z,45.4
2022-12-09T09:50:54.527Z,45.8
2022-12-09T09:56:45.262Z,51.3
2022-12-09T10:02:34.178Z,54.4
2022-12-09T10:08:24.223Z,44.1
2022-12-09T10:14:21.432Z,39.4
2022-12-09T10:19:58.395Z,37.6
2022-12-09T10:25:51.825Z,36
2022-12-09T10:31:43.539Z,34.3
2022-12-09T10:37:32.992Z,33.1
2022-12-09T10:43:16.759Z,32
2022-12-09T10:49:31.269Z,30.8
2022-12-09T10:55:18.856Z,30.2
2022-12-09T11:01:08.809Z,29.6
2022-12-09T11:06:59.642Z,29.4
2022-12-09T11:12:56.125Z,29.1
2022-12-09T11:18:46.266Z,28.6
2022-12-09T11:24:38.591Z,28.1
2022-12-09T11:30:30.859Z,29.5
2022-12-09T11:37:01.370Z,31.2
2022-12-09T11:42:32.093Z,30.7
2022-12-09T11:49:00.925Z,30.1
2022-12-09T11:54:24.628Z,29.3
2022-12-09T11:59:53.835Z,28.8
2022-12-09T12:05:39.007Z,27.9
2022-12-09T12:11:02.005Z,26.8
2022-12-09T12:16:24.665Z,26.3
2022-12-09T12:21:47.624Z,25.8
2022-12-09T12:27:33.051Z,25.3
2022-12-09T12:39:45.710Z,24.4
2022-12-09T12:45:28.548Z,23.8
2022-12-09T12:51:08.126Z,23.1
2022-12-09T12:57:27.791Z,22.3
2022-12-09T13:03:10.235Z,21.6
2022-12-09T13:08:48.157Z,21
2022-12-09T13:14:26.838Z,20.5
2022-12-09T13:20:12.119Z,20
2022-12-09T13:25:55.555Z,19.5
2022-12-09T13:31:25.172Z,19.1
2022-12-09T13:36:53.545Z,18.6
2022-12-09T13:42:16.311Z,18.2
2022-12-09T13:47:55.174Z,17.8
2022-12-09T13:53:41.296Z,17.3
2022-12-09T13:59:23.334Z,16.9
2022-12-09T14:04:33.327Z,16.4
2022-12-09T14:10:17.814Z,16
2022-12-09T14:15:56.178Z,15.5
2022-12-09T14:21:35.323Z,15.1
2022-12-09T14:27:19.561Z,14.7
2022-12-09T14:32:58.332Z,14.3
2022-12-09T14:38:07.051Z,13.9
2022-12-09T14:44:13.292Z,13.5
2022-12-09T14:50:06.193Z,13.1
2022-12-09T14:55:45.264Z,12.8
2022-12-09T15:01:27.396Z,12.5
2022-12-09T15:07:31.542Z,12.2
2022-12-09T15:13:09.824Z,11.9
2022-12-09T15:18:52.050Z,11.5
2022-12-09T15:24:49.967Z,11.2
2022-12-09T15:30:12.801Z,10.9
2022-12-09T15:35:38.742Z,10.6
2022-12-09T15:41:01.658Z,10.3
2022-12-09T15:46:46.292Z,10.1
